sensor_id;sensor_type;location;lat;lon;timestamp;temperature;humidity
37300;DHT22;23184;51.902;12.836;2023-05-01T00:01:53;4.60;99.90
37300;DHT22;23184;51.902;12.836;2023-05-01T00:04:19;4.60;99.90
37300;DHT22;23184;51.902;12.836;2023-05-01T00:06:46;4.60;99.90
37300;DHT22;23184;51.902;12.836;2023-05-01T00:09:13;4.50;99.90
37300;DHT22;23184;51.902;12.836;2023-05-01T00:11:39;4.60;99.90
37300;DHT22;23184;51.902;12.836;2023-05-01T00:14:05;4.60;99.90
37300;DHT22;23184;51.902;12.836;2023-05-01T00:16:30;4.60;99.90
37300;DHT22;23184;51.902;12.836;2023-05-01T00:18:56;4.60;99.90
37300;DHT22;23184;51.902;12.836;2023-05-01T00:21:22;4.60;99.90
37300;DHT22;23184;51.902;12.836;2023-05-01T00:23:48;4.60;99.90
37300;DHT22;23184;51.902;12.836;2023-05-01T00:26:13;4.60;99.90
37300;DHT22;23184;51.902;12.836;2023-05-01T00:28:39;4.60;99.90
37300;DHT22;23184;51.902;12.836;2023-05-01T00:31:04;4.60;99.90
37300;DHT22;23184;51.902;12.836;2023-05-01T00:33:30;4.50;99.90
37300;DHT22;23184;51.902;12.836;2023-05-01T00:35:58;4.50;99.90
37300;DHT22;23184;51.902;12.836;2023-05-01T00:38:24;4.40;99.90
37300;DHT22;23184;51.902;12.836;2023-05-01T00:40:49;4.30;99.90
37300;DHT22;23184;51.902;12.836;2023-05-01T00:43:15;4.30;99.90
37300;DHT22;23184;51.902;12.836;2023-05-01T00:45:43;4.30;99.90
37300;DHT22;23184;51.902;12.836;2023-05-01T00:48:14;4.30;99.90
37300;DHT22;23184;51.902;12.836;2023-05-01T00:50:40;4.20;99.90
37300;DHT22;23184;51.902;12.836;2023-05-01T00:53:07;4.20;99.90
37300;DHT22;23184;51.902;12.836;2023-05-01T00:55:33;4.20;99.90
37300;DHT22;23184;51.902;12.836;2023-05-01T00:58:00;4.20;99.90
37300;DHT22;23184;51.902;12.836;2023-05-01T01:00:26;4.20;99.90
37300;DHT22;23184;51.902;12.836;2023-05-01T01:02:53;4.20;99.90
37300;DHT22;23184;51.902;12.836;2023-05-01T01:05:20;4.20;99.90
37300;DHT22;23184;51.902;12.836;2023-05-01T01:08:08;4.10;99.90
37300;DHT22;23184;51.902;12.836;2023-05-01T01:10:55;4.20;99.90
37300;DHT22;23184;51.902;12.836;2023-05-01T01:13:33;4.20;99.90
37300;DHT22;23184;51.902;12.836;2023-05-01T01:21:40;4.10;99.90
37300;DHT22;23184;51.902;12.836;2023-05-01T01:24:47;4.10;99.90
37300;DHT22;23184;51.902;12.836;2023-05-01T01:33:34;3.80;99.90
37300;DHT22;23184;51.902;12.836;2023-05-01T01:36:07;3.70;99.90
37300;DHT22;23184;51.902;12.836;2023-05-01T01:38:59;3.70;99.90
37300;DHT22;23184;51.902;12.836;2023-05-01T01:41:30;3.80;99.90
37300;DHT22;23184;51.902;12.836;2023-05-01T01:44:03;3.80;99.90
37300;DHT22;23184;51.902;12.836;2023-05-01T01:46:34;3.80;99.90
37300;DHT22;23184;51.902;12.836;2023-05-01T01:49:10;3.90;99.90
37300;DHT22;23184;51.902;12.836;2023-05-01T01:51:40;3.90;99.90
37300;DHT22;23184;51.902;12.836;2023-05-01T01:54:06;4.00;99.90
37300;DHT22;23184;51.902;12.836;2023-05-01T01:56:37;4.00;99.90
37300;DHT22;23184;51.902;12.836;2023-05-01T01:59:06;4.10;99.90
37300;DHT22;23184;51.902;12.836;2023-05-01T02:01:34;4.20;99.90
37300;DHT22;23184;51.902;12.836;2023-05-01T02:04:02;4.30;99.90
37300;DHT22;23184;51.902;12.836;2023-05-01T02:06:32;4.30;99.90
37300;DHT22;23184;51.902;12.836;2023-05-01T02:09:01;4.40;99.90
37300;DHT22;23184;51.902;12.836;2023-05-01T02:11:30;4.50;99.90
37300;DHT22;23184;51.902;12.836;2023-05-01T02:14:01;4.50;99.90
37300;DHT22;23184;51.902;12.836;2023-05-01T02:16:28;4.60;99.90
37300;DHT22;23184;51.902;12.836;2023-05-01T02:18:54;4.60;99.90
37300;DHT22;23184;51.902;12.836;2023-05-01T02:21:21;4.60;99.90
37300;DHT22;23184;51.902;12.836;2023-05-01T02:23:49;4.60;99.90
37300;DHT22;23184;51.902;12.836;2023-05-01T02:26:15;4.60;99.90
37300;DHT22;23184;51.902;12.836;2023-05-01T02:28:42;4.60;99.90
37300;DHT22;23184;51.902;12.836;2023-05-01T02:31:09;4.60;99.90
37300;DHT22;23184;51.902;12.836;2023-05-01T02:33:35;4.50;99.90
37300;DHT22;23184;51.902;12.836;2023-05-01T02:36:00;4.50;99.90
37300;DHT22;23184;51.902;12.836;2023-05-01T02:38:26;4.40;99.90
37300;DHT22;23184;51.902;12.836;2023-05-01T02:40:56;4.30;99.90
37300;DHT22;23184;51.902;12.836;2023-05-01T02:43:25;4.10;99.90
37300;DHT22;23184;51.902;12.836;2023-05-01T02:45:52;4.00;99.90
37300;DHT22;23184;51.902;12.836;2023-05-01T02:48:23;3.90;99.90
37300;DHT22;23184;51.902;12.836;2023-05-01T02:50:59;3.90;99.90
37300;DHT22;23184;51.902;12.836;2023-05-01T02:53:31;3.90;99.90
37300;DHT22;23184;51.902;12.836;2023-05-01T02:55:58;3.90;99.90
37300;DHT22;23184;51.902;12.836;2023-05-01T02:58:24;3.90;99.90
37300;DHT22;23184;51.902;12.836;2023-05-01T03:00:56;3.90;99.90
37300;DHT22;23184;51.902;12.836;2023-05-01T03:03:22;3.80;99.90
37300;DHT22;23184;51.902;12.836;2023-05-01T03:05:53;3.70;99.90
37300;DHT22;23184;51.902;12.836;2023-05-01T03:08:18;3.70;99.90
37300;DHT22;23184;51.902;12.836;2023-05-01T03:10:44;3.60;99.90
37300;DHT22;23184;51.902;12.836;2023-05-01T03:13:11;3.60;99.90
37300;DHT22;23184;51.902;12.836;2023-05-01T03:15:37;3.50;99.90
37300;DHT22;23184;51.902;12.836;2023-05-01T03:18:07;3.50;99.90
37300;DHT22;23184;51.902;12.836;2023-05-01T03:20:33;3.40;99.90
37300;DHT22;23184;51.902;12.836;2023-05-01T03:23:08;3.40;99.90
37300;DHT22;23184;51.902;12.836;2023-05-01T03:25:34;3.30;99.90
37300;DHT22;23184;51.902;12.836;2023-05-01T03:28:01;3.30;99.90
37300;DHT22;23184;51.902;12.836;2023-05-01T03:30:27;3.20;99.90
37300;DHT22;23184;51.902;12.836;2023-05-01T03:32:54;3.20;99.90
37300;DHT22;23184;51.902;12.836;2023-05-01T03:35:21;3.20;99.90
37300;DHT22;23184;51.902;12.836;2023-05-01T03:37:47;3.20;99.90
37300;DHT22;23184;51.902;12.836;2023-05-01T03:40:16;3.20;99.90
37300;DHT22;23184;51.902;12.836;2023-05-01T03:42:48;3.20;99.90
37300;DHT22;23184;51.902;12.836;2023-05-01T03:45:14;3.20;99.90
37300;DHT22;23184;51.902;12.836;2023-05-01T03:47:46;3.20;99.90
37300;DHT22;23184;51.902;12.836;2023-05-01T03:50:14;3.20;99.90
37300;DHT22;23184;51.902;12.836;2023-05-01T03:52:41;3.20;99.90
37300;DHT22;23184;51.902;12.836;2023-05-01T03:55:12;3.20;99.90
37300;DHT22;23184;51.902;12.836;2023-05-01T03:57:43;3.20;99.90
37300;DHT22;23184;51.902;12.836;2023-05-01T04:00:12;3.30;99.90
37300;DHT22;23184;51.902;12.836;2023-05-01T04:02:37;3.30;99.90
37300;DHT22;23184;51.902;12.836;2023-05-01T04:05:03;3.30;99.90
37300;DHT22;23184;51.902;12.836;2023-05-01T04:07:32;3.30;99.90
37300;DHT22;23184;51.902;12.836;2023-05-01T04:10:00;3.30;99.90
37300;DHT22;23184;51.902;12.836;2023-05-01T04:12:35;3.30;99.90
37300;DHT22;23184;51.902;12.836;2023-05-01T04:15:01;3.30;99.90
37300;DHT22;23184;51.902;12.836;2023-05-01T04:17:28;3.30;99.90
37300;DHT22;23184;51.902;12.836;2023-05-01T04:19:54;3.30;99.90
37300;DHT22;23184;51.902;12.836;2023-05-01T04:22:21;3.40;99.90
37300;DHT22;23184;51.902;12.836;2023-05-01T04:24:56;3.50;99.90
37300;DHT22;23184;51.902;12.836;2023-05-01T04:27:42;3.50;99.90
37300;DHT22;23184;51.902;12.836;2023-05-01T04:30:08;3.60;99.90
37300;DHT22;23184;51.902;12.836;2023-05-01T04:32:35;3.60;99.90
37300;DHT22;23184;51.902;12.836;2023-05-01T04:35:01;3.70;99.90
37300;DHT22;23184;51.902;12.836;2023-05-01T04:37:26;3.80;99.90
37300;DHT22;23184;51.902;12.836;2023-05-01T04:39:52;3.90;99.90
37300;DHT22;23184;51.902;12.836;2023-05-01T04:42:19;4.00;99.90
37300;DHT22;23184;51.902;12.836;2023-05-01T04:44:45;4.20;99.90
37300;DHT22;23184;51.902;12.836;2023-05-01T04:47:26;4.50;99.90
37300;DHT22;23184;51.902;12.836;2023-05-01T04:49:52;4.70;99.90
37300;DHT22;23184;51.902;12.836;2023-05-01T04:52:19;4.80;99.90
37300;DHT22;23184;51.902;12.836;2023-05-01T04:54:44;5.00;99.90
37300;DHT22;23184;51.902;12.836;2023-05-01T04:57:10;5.40;99.90
37300;DHT22;23184;51.902;12.836;2023-05-01T04:59:36;5.60;99.90
37300;DHT22;23184;51.902;12.836;2023-05-01T05:02:02;5.70;99.90
37300;DHT22;23184;51.902;12.836;2023-05-01T05:04:27;5.90;99.90
37300;DHT22;23184;51.902;12.836;2023-05-01T05:06:53;6.00;99.90
37300;DHT22;23184;51.902;12.836;2023-05-01T05:09:19;6.10;99.90
37300;DHT22;23184;51.902;12.836;2023-05-01T05:11:50;6.20;99.90
37300;DHT22;23184;51.902;12.836;2023-05-01T05:14:17;6.30;99.90
37300;DHT22;23184;51.902;12.836;2023-05-01T05:16:42;6.40;99.90
37300;DHT22;23184;51.902;12.836;2023-05-01T05:19:08;6.50;99.90
37300;DHT22;23184;51.902;12.836;2023-05-01T05:21:34;6.60;99.90
37300;DHT22;23184;51.902;12.836;2023-05-01T05:23:59;6.70;99.90
37300;DHT22;23184;51.902;12.836;2023-05-01T05:26:25;6.70;99.90
37300;DHT22;23184;51.902;12.836;2023-05-01T05:28:51;6.80;99.90
37300;DHT22;23184;51.902;12.836;2023-05-01T05:31:16;6.90;99.90
37300;DHT22;23184;51.902;12.836;2023-05-01T05:33:42;7.00;99.90
37300;DHT22;23184;51.902;12.836;2023-05-01T05:36:09;7.10;99.90
37300;DHT22;23184;51.902;12.836;2023-05-01T05:38:34;7.20;99.90
37300;DHT22;23184;51.902;12.836;2023-05-01T05:41:00;7.30;99.90
37300;DHT22;23184;51.902;12.836;2023-05-01T05:43:26;7.40;99.90
37300;DHT22;23184;51.902;12.836;2023-05-01T05:45:55;7.60;99.90
37300;DHT22;23184;51.902;12.836;2023-05-01T05:48:21;7.60;99.90
37300;DHT22;23184;51.902;12.836;2023-05-01T05:50:47;7.70;99.90
37300;DHT22;23184;51.902;12.836;2023-05-01T05:53:15;7.80;99.90
37300;DHT22;23184;51.902;12.836;2023-05-01T05:55:40;7.90;99.90
37300;DHT22;23184;51.902;12.836;2023-05-01T05:58:07;8.00;99.90
37300;DHT22;23184;51.902;12.836;2023-05-01T06:00:33;8.10;99.90
37300;DHT22;23184;51.902;12.836;2023-05-01T06:02:58;8.20;99.90
37300;DHT22;23184;51.902;12.836;2023-05-01T06:05:24;8.40;99.90
37300;DHT22;23184;51.902;12.836;2023-05-01T06:07:50;8.70;99.90
37300;DHT22;23184;51.902;12.836;2023-05-01T06:10:15;8.90;99.90
37300;DHT22;23184;51.902;12.836;2023-05-01T06:12:41;9.00;99.90
37300;DHT22;23184;51.902;12.836;2023-05-01T06:15:07;9.20;99.90
37300;DHT22;23184;51.902;12.836;2023-05-01T06:17:33;9.30;99.90
37300;DHT22;23184;51.902;12.836;2023-05-01T06:19:59;9.40;99.90
37300;DHT22;23184;51.902;12.836;2023-05-01T06:22:26;9.50;99.90
37300;DHT22;23184;51.902;12.836;2023-05-01T06:24:51;9.50;99.90
37300;DHT22;23184;51.902;12.836;2023-05-01T06:27:17;9.60;99.90
37300;DHT22;23184;51.902;12.836;2023-05-01T06:29:42;9.60;99.90
37300;DHT22;23184;51.902;12.836;2023-05-01T06:32:08;9.60;99.90
37300;DHT22;23184;51.902;12.836;2023-05-01T06:34:33;9.60;99.90
37300;DHT22;23184;51.902;12.836;2023-05-01T06:36:59;9.50;99.90
37300;DHT22;23184;51.902;12.836;2023-05-01T06:39:24;9.50;99.90
37300;DHT22;23184;51.902;12.836;2023-05-01T06:41:50;9.60;99.90
37300;DHT22;23184;51.902;12.836;2023-05-01T06:44:15;9.80;99.90
37300;DHT22;23184;51.902;12.836;2023-05-01T06:46:41;10.20;99.90
37300;DHT22;23184;51.902;12.836;2023-05-01T06:49:06;10.60;99.90
37300;DHT22;23184;51.902;12.836;2023-05-01T06:51:32;11.10;99.90
37300;DHT22;23184;51.902;12.836;2023-05-01T06:53:57;11.30;99.90
37300;DHT22;23184;51.902;12.836;2023-05-01T06:56:23;11.60;99.90
37300;DHT22;23184;51.902;12.836;2023-05-01T06:58:48;11.90;99.90
37300;DHT22;23184;51.902;12.836;2023-05-01T07:01:16;12.30;99.90
37300;DHT22;23184;51.902;12.836;2023-05-01T07:03:41;12.50;99.90
37300;DHT22;23184;51.902;12.836;2023-05-01T07:06:07;12.60;99.90
37300;DHT22;23184;51.902;12.836;2023-05-01T07:08:32;13.00;99.90
37300;DHT22;23184;51.902;12.836;2023-05-01T07:10:58;13.40;99.90
37300;DHT22;23184;51.902;12.836;2023-05-01T07:13:23;13.40;99.90
37300;DHT22;23184;51.902;12.836;2023-05-01T07:15:49;13.80;99.90
37300;DHT22;23184;51.902;12.836;2023-05-01T07:18:15;13.80;99.90
37300;DHT22;23184;51.902;12.836;2023-05-01T07:20:41;13.70;99.90
37300;DHT22;23184;51.902;12.836;2023-05-01T07:23:07;13.50;99.90
37300;DHT22;23184;51.902;12.836;2023-05-01T07:25:34;13.40;99.90
37300;DHT22;23184;51.902;12.836;2023-05-01T07:28:02;13.30;99.90
37300;DHT22;23184;51.902;12.836;2023-05-01T07:30:28;13.50;99.90
37300;DHT22;23184;51.902;12.836;2023-05-01T07:32:55;13.80;99.90
37300;DHT22;23184;51.902;12.836;2023-05-01T07:35:22;13.90;99.90
37300;DHT22;23184;51.902;12.836;2023-05-01T07:37:48;14.20;99.90
37300;DHT22;23184;51.902;12.836;2023-05-01T07:40:16;14.20;99.90
37300;DHT22;23184;51.902;12.836;2023-05-01T07:42:41;14.50;99.90
37300;DHT22;23184;51.902;12.836;2023-05-01T07:45:07;14.80;98.70
37300;DHT22;23184;51.902;12.836;2023-05-01T07:47:33;15.20;97.80
37300;DHT22;23184;51.902;12.836;2023-05-01T07:49:58;15.30;95.90
37300;DHT22;23184;51.902;12.836;2023-05-01T07:52:25;15.50;94.40
37300;DHT22;23184;51.902;12.836;2023-05-01T07:54:51;15.70;91.10
37300;DHT22;23184;51.902;12.836;2023-05-01T07:57:16;15.10;91.20
37300;DHT22;23184;51.902;12.836;2023-05-01T07:59:42;15.30;91.20
37300;DHT22;23184;51.902;12.836;2023-05-01T08:02:07;14.70;91.30
37300;DHT22;23184;51.902;12.836;2023-05-01T08:04:33;15.10;92.10
37300;DHT22;23184;51.902;12.836;2023-05-01T08:06:58;15.50;91.80
37300;DHT22;23184;51.902;12.836;2023-05-01T08:09:24;15.60;90.90
37300;DHT22;23184;51.902;12.836;2023-05-01T08:11:49;15.90;90.30
37300;DHT22;23184;51.902;12.836;2023-05-01T08:14:15;16.40;89.20
37300;DHT22;23184;51.902;12.836;2023-05-01T08:16:42;17.20;87.10
37300;DHT22;23184;51.902;12.836;2023-05-01T08:19:07;17.90;88.60
37300;DHT22;23184;51.902;12.836;2023-05-01T08:21:33;17.90;84.80
37300;DHT22;23184;51.902;12.836;2023-05-01T08:23:58;18.00;80.60
37300;DHT22;23184;51.902;12.836;2023-05-01T08:26:24;17.50;79.50
37300;DHT22;23184;51.902;12.836;2023-05-01T08:28:49;17.70;83.20
37300;DHT22;23184;51.902;12.836;2023-05-01T08:31:15;17.80;82.30
37300;DHT22;23184;51.902;12.836;2023-05-01T08:33:40;17.40;76.50
37300;DHT22;23184;51.902;12.836;2023-05-01T08:36:08;17.50;77.70
37300;DHT22;23184;51.902;12.836;2023-05-01T08:38:34;17.40;79.50
37300;DHT22;23184;51.902;12.836;2023-05-01T08:41:00;17.70;81.40
37300;DHT22;23184;51.902;12.836;2023-05-01T08:43:29;17.60;76.10
37300;DHT22;23184;51.902;12.836;2023-05-01T08:45:55;17.60;75.30
37300;DHT22;23184;51.902;12.836;2023-05-01T08:48:22;17.20;75.30
37300;DHT22;23184;51.902;12.836;2023-05-01T08:50:49;17.50;76.50
37300;DHT22;23184;51.902;12.836;2023-05-01T08:53:17;17.60;77.20
37300;DHT22;23184;51.902;12.836;2023-05-01T08:55:44;17.70;76.50
37300;DHT22;23184;51.902;12.836;2023-05-01T08:58:13;17.80;74.30
37300;DHT22;23184;51.902;12.836;2023-05-01T09:00:40;17.70;75.30
37300;DHT22;23184;51.902;12.836;2023-05-01T09:03:07;18.40;75.50
37300;DHT22;23184;51.902;12.836;2023-05-01T09:05:35;18.70;74.00
37300;DHT22;23184;51.902;12.836;2023-05-01T09:08:01;19.00;74.70
37300;DHT22;23184;51.902;12.836;2023-05-01T09:10:27;19.10;74.40
37300;DHT22;23184;51.902;12.836;2023-05-01T09:12:56;18.10;72.20
37300;DHT22;23184;51.902;12.836;2023-05-01T09:15:24;18.30;73.30
37300;DHT22;23184;51.902;12.836;2023-05-01T09:17:51;18.90;73.40
37300;DHT22;23184;51.902;12.836;2023-05-01T09:20:18;19.30;73.30
37300;DHT22;23184;51.902;12.836;2023-05-01T09:22:43;19.40;69.30
37300;DHT22;23184;51.902;12.836;2023-05-01T09:25:09;19.40;67.10
37300;DHT22;23184;51.902;12.836;2023-05-01T09:27:36;19.40;71.20
37300;DHT22;23184;51.902;12.836;2023-05-01T09:30:02;19.20;70.80
37300;DHT22;23184;51.902;12.836;2023-05-01T09:32:30;19.70;67.30
37300;DHT22;23184;51.902;12.836;2023-05-01T09:35:11;20.00;68.80
37300;DHT22;23184;51.902;12.836;2023-05-01T09:37:38;20.70;71.00
37300;DHT22;23184;51.902;12.836;2023-05-01T09:40:08;20.70;69.10
37300;DHT22;23184;51.902;12.836;2023-05-01T09:42:39;20.50;68.50
37300;DHT22;23184;51.902;12.836;2023-05-01T09:45:11;20.10;63.20
37300;DHT22;23184;51.902;12.836;2023-05-01T09:47:39;20.50;64.90
37300;DHT22;23184;51.902;12.836;2023-05-01T09:50:05;21.40;66.80
37300;DHT22;23184;51.902;12.836;2023-05-01T09:52:31;21.50;65.70
37300;DHT22;23184;51.902;12.836;2023-05-01T09:55:17;21.80;63.30
37300;DHT22;23184;51.902;12.836;2023-05-01T09:57:44;22.10;60.70
37300;DHT22;23184;51.902;12.836;2023-05-01T10:00:12;21.70;59.60
37300;DHT22;23184;51.902;12.836;2023-05-01T10:02:39;21.10;60.30
37300;DHT22;23184;51.902;12.836;2023-05-01T10:05:05;21.50;62.30
37300;DHT22;23184;51.902;12.836;2023-05-01T10:07:32;21.40;59.00
37300;DHT22;23184;51.902;12.836;2023-05-01T10:09:57;20.90;60.00
37300;DHT22;23184;51.902;12.836;2023-05-01T10:12:27;19.90;63.70
37300;DHT22;23184;51.902;12.836;2023-05-01T10:14:54;19.90;68.60
37300;DHT22;23184;51.902;12.836;2023-05-01T10:17:20;19.60;71.90
37300;DHT22;23184;51.902;12.836;2023-05-01T10:19:47;20.80;62.70
37300;DHT22;23184;51.902;12.836;2023-05-01T10:22:13;21.00;66.80
37300;DHT22;23184;51.902;12.836;2023-05-01T10:24:39;20.80;62.00
37300;DHT22;23184;51.902;12.836;2023-05-01T10:27:06;20.50;61.50
37300;DHT22;23184;51.902;12.836;2023-05-01T10:29:33;20.40;64.60
37300;DHT22;23184;51.902;12.836;2023-05-01T10:32:00;20.30;63.40
37300;DHT22;23184;51.902;12.836;2023-05-01T10:34:26;20.10;62.90
37300;DHT22;23184;51.902;12.836;2023-05-01T10:37:01;20.70;63.50
37300;DHT22;23184;51.902;12.836;2023-05-01T10:39:29;20.90;63.40
37300;DHT22;23184;51.902;12.836;2023-05-01T10:42:00;21.50;64.00
37300;DHT22;23184;51.902;12.836;2023-05-01T10:44:28;20.30;66.70
37300;DHT22;23184;51.902;12.836;2023-05-01T10:46:54;20.00;63.80
37300;DHT22;23184;51.902;12.836;2023-05-01T10:49:19;20.20;62.40
37300;DHT22;23184;51.902;12.836;2023-05-01T10:54:24;20.00;63.80
37300;DHT22;23184;51.902;12.836;2023-05-01T10:56:51;19.60;67.30
37300;DHT22;23184;51.902;12.836;2023-05-01T10:59:17;18.70;67.00
37300;DHT22;23184;51.902;12.836;2023-05-01T11:01:44;18.20;68.40
37300;DHT22;23184;51.902;12.836;2023-05-01T11:15:09;19.40;64.00
37300;DHT22;23184;51.902;12.836;2023-05-01T11:20:10;20.40;67.20
37300;DHT22;23184;51.902;12.836;2023-05-01T11:22:37;19.30;66.60
37300;DHT22;23184;51.902;12.836;2023-05-01T11:25:19;19.50;66.90
37300;DHT22;23184;51.902;12.836;2023-05-01T11:27:47;19.30;63.30
37300;DHT22;23184;51.902;12.836;2023-05-01T11:30:13;19.20;65.70
37300;DHT22;23184;51.902;12.836;2023-05-01T11:32:42;20.00;62.40
37300;DHT22;23184;51.902;12.836;2023-05-01T11:35:16;20.60;59.20
37300;DHT22;23184;51.902;12.836;2023-05-01T11:37:42;21.00;61.50
37300;DHT22;23184;51.902;12.836;2023-05-01T11:42:58;19.10;63.80
37300;DHT22;23184;51.902;12.836;2023-05-01T11:45:24;18.90;60.10
37300;DHT22;23184;51.902;12.836;2023-05-01T11:47:50;18.20;62.80
37300;DHT22;23184;51.902;12.836;2023-05-01T11:50:15;18.10;66.00
37300;DHT22;23184;51.902;12.836;2023-05-01T11:52:49;17.50;70.40
37300;DHT22;23184;51.902;12.836;2023-05-01T11:55:17;17.40;69.60
37300;DHT22;23184;51.902;12.836;2023-05-01T11:57:52;17.50;68.80
37300;DHT22;23184;51.902;12.836;2023-05-01T12:00:35;18.20;69.50
37300;DHT22;23184;51.902;12.836;2023-05-01T12:03:08;18.40;70.00
37300;DHT22;23184;51.902;12.836;2023-05-01T12:05:36;18.70;69.20
37300;DHT22;23184;51.902;12.836;2023-05-01T12:08:28;19.20;68.70
37300;DHT22;23184;51.902;12.836;2023-05-01T12:10:54;19.40;68.40
37300;DHT22;23184;51.902;12.836;2023-05-01T12:13:20;20.00;66.30
37300;DHT22;23184;51.902;12.836;2023-05-01T12:15:51;20.30;62.90
37300;DHT22;23184;51.902;12.836;2023-05-01T12:18:17;21.10;60.80
37300;DHT22;23184;51.902;12.836;2023-05-01T12:20:53;21.20;58.80
37300;DHT22;23184;51.902;12.836;2023-05-01T12:23:35;20.00;61.70
37300;DHT22;23184;51.902;12.836;2023-05-01T12:26:14;20.40;61.40
37300;DHT22;23184;51.902;12.836;2023-05-01T12:28:59;20.10;61.90
37300;DHT22;23184;51.902;12.836;2023-05-01T12:31:25;20.80;62.00
37300;DHT22;23184;51.902;12.836;2023-05-01T12:33:52;21.00;64.00
37300;DHT22;23184;51.902;12.836;2023-05-01T12:36:20;21.30;66.10
37300;DHT22;23184;51.902;12.836;2023-05-01T12:41:51;20.60;59.90
37300;DHT22;23184;51.902;12.836;2023-05-01T12:47:07;23.00;55.00
37300;DHT22;23184;51.902;12.836;2023-05-01T12:49:34;24.90;53.90
37300;DHT22;23184;51.902;12.836;2023-05-01T12:52:05;24.30;52.30
37300;DHT22;23184;51.902;12.836;2023-05-01T12:54:33;23.50;56.20
37300;DHT22;23184;51.902;12.836;2023-05-01T12:57:09;22.80;56.30
37300;DHT22;23184;51.902;12.836;2023-05-01T12:59:37;23.00;52.80
37300;DHT22;23184;51.902;12.836;2023-05-01T13:02:04;22.30;53.30
37300;DHT22;23184;51.902;12.836;2023-05-01T13:04:30;21.30;57.30
37300;DHT22;23184;51.902;12.836;2023-05-01T13:06:57;21.10;58.00
37300;DHT22;23184;51.902;12.836;2023-05-01T13:09:23;21.60;61.40
37300;DHT22;23184;51.902;12.836;2023-05-01T13:11:58;22.30;57.40
37300;DHT22;23184;51.902;12.836;2023-05-01T13:14:25;24.40;54.90
37300;DHT22;23184;51.902;12.836;2023-05-01T13:16:51;22.40;53.50
37300;DHT22;23184;51.902;12.836;2023-05-01T13:19:27;22.40;59.00
37300;DHT22;23184;51.902;12.836;2023-05-01T13:21:54;23.90;52.10
37300;DHT22;23184;51.902;12.836;2023-05-01T13:24:20;24.30;50.20
37300;DHT22;23184;51.902;12.836;2023-05-01T13:26:46;25.20;49.40
37300;DHT22;23184;51.902;12.836;2023-05-01T13:29:14;24.20;53.50
37300;DHT22;23184;51.902;12.836;2023-05-01T13:31:43;24.00;49.10
37300;DHT22;23184;51.902;12.836;2023-05-01T13:34:09;22.80;52.00
37300;DHT22;23184;51.902;12.836;2023-05-01T13:36:35;22.50;53.00
37300;DHT22;23184;51.902;12.836;2023-05-01T13:39:00;22.60;54.20
37300;DHT22;23184;51.902;12.836;2023-05-01T13:41:26;23.30;54.50
37300;DHT22;23184;51.902;12.836;2023-05-01T13:43:54;24.50;51.50
37300;DHT22;23184;51.902;12.836;2023-05-01T13:46:21;23.10;50.10
37300;DHT22;23184;51.902;12.836;2023-05-01T13:48:47;22.60;51.70
37300;DHT22;23184;51.902;12.836;2023-05-01T13:51:18;21.70;56.70
37300;DHT22;23184;51.902;12.836;2023-05-01T13:53:44;21.00;57.80
37300;DHT22;23184;51.902;12.836;2023-05-01T13:56:10;20.80;59.20
37300;DHT22;23184;51.902;12.836;2023-05-01T13:58:37;20.80;56.60
37300;DHT22;23184;51.902;12.836;2023-05-01T14:01:13;22.00;54.90
37300;DHT22;23184;51.902;12.836;2023-05-01T14:03:40;21.10;55.70
37300;DHT22;23184;51.902;12.836;2023-05-01T14:06:10;20.80;60.50
37300;DHT22;23184;51.902;12.836;2023-05-01T14:08:37;21.00;57.80
37300;DHT22;23184;51.902;12.836;2023-05-01T14:11:05;20.20;57.10
37300;DHT22;23184;51.902;12.836;2023-05-01T14:13:31;20.30;62.60
37300;DHT22;23184;51.902;12.836;2023-05-01T14:15:56;19.90;59.20
37300;DHT22;23184;51.902;12.836;2023-05-01T14:18:22;20.10;62.80
37300;DHT22;23184;51.902;12.836;2023-05-01T14:20:47;20.00;59.10
37300;DHT22;23184;51.902;12.836;2023-05-01T14:23:14;19.70;57.80
37300;DHT22;23184;51.902;12.836;2023-05-01T14:25:43;20.10;57.90
37300;DHT22;23184;51.902;12.836;2023-05-01T14:28:09;19.70;58.70
37300;DHT22;23184;51.902;12.836;2023-05-01T14:30:39;19.60;60.00
37300;DHT22;23184;51.902;12.836;2023-05-01T14:33:09;19.40;64.20
37300;DHT22;23184;51.902;12.836;2023-05-01T14:35:36;19.50;65.90
37300;DHT22;23184;51.902;12.836;2023-05-01T14:38:09;19.20;66.30
37300;DHT22;23184;51.902;12.836;2023-05-01T14:40:34;19.00;60.00
37300;DHT22;23184;51.902;12.836;2023-05-01T14:43:00;19.20;61.50
37300;DHT22;23184;51.902;12.836;2023-05-01T14:45:26;19.00;62.60
37300;DHT22;23184;51.902;12.836;2023-05-01T14:47:52;19.00;64.90
37300;DHT22;23184;51.902;12.836;2023-05-01T14:50:19;19.40;60.90
37300;DHT22;23184;51.902;12.836;2023-05-01T14:52:46;19.20;61.30
37300;DHT22;23184;51.902;12.836;2023-05-01T14:55:11;19.60;60.20
37300;DHT22;23184;51.902;12.836;2023-05-01T14:57:38;19.30;61.20
37300;DHT22;23184;51.902;12.836;2023-05-01T15:00:04;19.70;59.70
37300;DHT22;23184;51.902;12.836;2023-05-01T15:02:31;20.10;59.30
37300;DHT22;23184;51.902;12.836;2023-05-01T15:04:56;20.50;57.80
37300;DHT22;23184;51.902;12.836;2023-05-01T15:07:22;19.90;64.60
37300;DHT22;23184;51.902;12.836;2023-05-01T15:09:48;19.70;62.80
37300;DHT22;23184;51.902;12.836;2023-05-01T15:12:13;19.60;60.50
37300;DHT22;23184;51.902;12.836;2023-05-01T15:14:39;19.20;64.60
37300;DHT22;23184;51.902;12.836;2023-05-01T15:17:04;19.40;60.60
37300;DHT22;23184;51.902;12.836;2023-05-01T15:19:31;19.70;60.00
37300;DHT22;23184;51.902;12.836;2023-05-01T15:21:56;20.00;62.30
37300;DHT22;23184;51.902;12.836;2023-05-01T15:24:22;20.40;65.40
37300;DHT22;23184;51.902;12.836;2023-05-01T15:26:47;20.60;58.90
37300;DHT22;23184;51.902;12.836;2023-05-01T15:29:13;20.20;65.00
37300;DHT22;23184;51.902;12.836;2023-05-01T15:31:38;20.10;63.30
37300;DHT22;23184;51.902;12.836;2023-05-01T15:34:04;19.80;63.40
37300;DHT22;23184;51.902;12.836;2023-05-01T15:36:29;20.00;64.60
37300;DHT22;23184;51.902;12.836;2023-05-01T15:38:55;19.70;66.30
37300;DHT22;23184;51.902;12.836;2023-05-01T15:41:20;19.40;60.20
37300;DHT22;23184;51.902;12.836;2023-05-01T15:43:46;19.60;60.20
37300;DHT22;23184;51.902;12.836;2023-05-01T15:46:12;19.40;69.10
37300;DHT22;23184;51.902;12.836;2023-05-01T15:48:39;19.40;65.60
37300;DHT22;23184;51.902;12.836;2023-05-01T15:51:05;19.20;70.00
37300;DHT22;23184;51.902;12.836;2023-05-01T15:53:30;19.40;60.10
37300;DHT22;23184;51.902;12.836;2023-05-01T15:55:56;19.60;65.70
37300;DHT22;23184;51.902;12.836;2023-05-01T15:58:23;19.60;59.40
37300;DHT22;23184;51.902;12.836;2023-05-01T16:00:48;19.80;59.00
37300;DHT22;23184;51.902;12.836;2023-05-01T16:03:14;19.90;59.50